Time,TemperatureF,DewpointF,PressureIn,WindDirection,WindDirectionDegrees,WindSpeedMPH,WindSpeedGustMPH,Humidity,HourlyPrecipIn,Conditions,Clouds,dailyrainin,SoftwareType,DateUTC
2013-07-08 00:00:00,76.1,56.7,30.06,South,180,2.0,2.9,51,0.00,,---,0.00,VWS V14.00,2013-07-08 04:00:00,
2013-07-08 00:01:00,71.8,64.2,30.03,East,90,0.0,0.0,77,0.00,,---,0.00,VWS V14.00,2013-07-08 04:01:00,
2013-07-08 00:06:00,71.8,64.2,30.03,SW,225,0.0,0.0,77,0.00,,---,0.00,VWS V14.00,2013-07-08 04:06:00,
2013-07-08 00:11:00,71.6,64.0,30.03,SSW,202,0.0,0.9,77,0.00,,---,0.00,VWS V14.00,2013-07-08 04:11:00,
2013-07-08 00:16:00,71.6,64.0,30.03,SSW,202,0.0,0.0,77,0.00,,---,0.00,VWS V14.00,2013-07-08 04:16:00,
2013-07-08 00:21:00,71.6,64.0,30.03,South,180,1.1,1.3,77,0.00,,---,0.00,VWS V14.00,2013-07-08 04:21:00,
2013-07-08 00:26:00,71.4,64.2,30.03,SSW,202,1.1,1.1,78,0.00,,---,0.00,VWS V14.00,2013-07-08 04:26:00,
2013-07-08 00:31:00,71.4,64.2,30.03,SSW,202,0.0,0.0,78,0.00,,---,0.00,VWS V14.00,2013-07-08 04:31:00,
2013-07-08 00:36:00,71.2,64.0,30.03,SSW,202,0.0,0.0,78,0.00,,---,0.00,VWS V14.00,2013-07-08 04:36:00,
2013-07-08 00:41:00,71.2,64.0,30.03,SSW,202,0.0,1.1,78,0.00,,---,0.00,VWS V14.00,2013-07-08 04:41:00,
2013-07-08 00:46:00,71.2,64.0,30.03,WSW,248,1.3,1.3,78,0.00,,---,0.00,VWS V14.00,2013-07-08 04:46:00,
2013-07-08 00:51:00,71.1,64.2,30.03,WSW,248,0.0,0.0,79,0.00,,---,0.00,VWS V14.00,2013-07-08 04:51:00,
2013-07-08 00:56:00,71.1,64.2,30.03,WSW,248,0.0,0.0,79,0.00,,---,0.00,VWS V14.00,2013-07-08 04:56:00,
2013-07-08 01:01:00,70.9,64.1,30.03,WSW,248,0.0,0.0,79,0.00,,---,0.00,VWS V14.00,2013-07-08 05:01:00,
2013-07-08 01:06:00,70.9,64.1,30.03,SSW,202,1.3,1.3,79,0.00,,---,0.00,VWS V14.00,2013-07-08 05:06:00,
2013-07-08 01:11:00,70.7,63.9,30.03,SSW,202,2.0,2.0,79,0.00,,---,0.00,VWS V14.00,2013-07-08 05:11:00,
2013-07-08 01:16:00,70.7,63.9,30.03,South,180,0.0,0.0,79,0.00,,---,0.00,VWS V14.00,2013-07-08 05:16:00,
2013-07-08 01:21:00,70.7,63.9,30.03,South,180,0.0,0.0,79,0.00,,---,0.00,VWS V14.00,2013-07-08 05:21:00,
2013-07-08 01:26:00,70.7,64.2,30.03,East,90,0.0,0.0,80,0.00,,---,0.00,VWS V14.00,2013-07-08 05:26:00,
2013-07-08 01:31:00,70.7,64.2,30.03,East,90,0.0,0.0,80,0.00,,---,0.00,VWS V14.00,2013-07-08 05:31:00,
2013-07-08 01:36:00,70.7,64.2,30.03,SSW,202,0.9,1.1,80,0.00,,---,0.00,VWS V14.00,2013-07-08 05:36:00,
2013-07-08 01:41:00,70.7,64.2,30.03,SSW,202,0.0,0.9,80,0.00,,---,0.00,VWS V14.00,2013-07-08 05:41:00,
2013-07-08 01:46:00,70.5,64.1,30.03,WSW,248,0.9,1.3,80,0.00,,---,0.00,VWS V14.00,2013-07-08 05:46:00,
2013-07-08 01:51:00,70.5,64.1,30.03,South,180,1.6,1.6,80,0.00,,---,0.00,VWS V14.00,2013-07-08 05:51:00,
2013-07-08 01:56:00,70.3,63.9,30.03,SSW,202,1.1,1.1,80,0.00,,---,0.00,VWS V14.00,2013-07-08 05:56:00,
2013-07-08 02:01:00,70.3,63.9,30.03,SSW,202,0.0,1.1,80,0.00,,---,0.00,VWS V14.00,2013-07-08 06:01:00,
2013-07-08 02:06:00,70.3,63.9,30.03,SSW,202,1.3,1.6,80,0.00,,---,0.00,VWS V14.00,2013-07-08 06:06:00,
2013-07-08 02:11:00,70.2,63.7,30.03,SSW,202,0.0,0.0,80,0.00,,---,0.00,VWS V14.00,2013-07-08 06:11:00,
2013-07-08 02:16:00,70.2,63.7,30.03,SSW,202,0.9,1.3,80,0.00,,---,0.00,VWS V14.00,2013-07-08 06:16:00,
2013-07-08 02:21:00,70.0,63.5,30.03,SW,225,0.0,0.0,80,0.00,,---,0.00,VWS V14.00,2013-07-08 06:21:00,
2013-07-08 02:26:00,70.0,63.5,30.03,SW,225,0.9,0.9,80,0.00,,---,0.00,VWS V14.00,2013-07-08 06:26:00,
2013-07-08 02:31:00,70.0,63.9,30.03,SW,225,0.0,0.0,81,0.00,,---,0.00,VWS V14.00,2013-07-08 06:31:00,
2013-07-08 02:36:00,69.8,63.7,30.03,West,270,0.0,0.0,81,0.00,,---,0.00,VWS V14.00,2013-07-08 06:36:00,
2013-07-08 02:41:00,69.8,63.7,30.03,West,270,0.0,1.1,81,0.00,,---,0.00,VWS V14.00,2013-07-08 06:41:00,
2013-07-08 02:46:00,69.6,63.5,30.03,SSW,202,1.6,1.6,81,0.00,,---,0.00,VWS V14.00,2013-07-08 06:46:00,
2013-07-08 02:51:00,69.6,63.5,30.03,SSW,202,1.3,1.6,81,0.00,,---,0.00,VWS V14.00,2013-07-08 06:51:00,
2013-07-08 02:56:00,69.6,63.5,30.03,SW,225,0.0,0.0,81,0.00,,---,0.00,VWS V14.00,2013-07-08 06:56:00,
2013-07-08 03:01:00,69.4,63.4,30.03,SSW,202,0.0,1.1,81,0.00,,---,0.00,VWS V14.00,2013-07-08 07:01:00,
2013-07-08 03:06:00,69.4,63.4,30.03,SSW,202,1.3,1.3,81,0.00,,---,0.00,VWS V14.00,2013-07-08 07:06:00,
2013-07-08 03:11:00,69.4,63.4,30.03,SW,225,0.0,0.9,81,0.00,,---,0.00,VWS V14.00,2013-07-08 07:11:00,
2013-07-08 03:16:00,69.4,63.7,30.03,SSW,202,1.1,2.0,82,0.00,,---,0.00,VWS V14.00,2013-07-08 07:16:00,
2013-07-08 03:21:00,69.4,63.7,30.03,SW,225,1.3,1.3,82,0.00,,---,0.00,VWS V14.00,2013-07-08 07:21:00,
2013-07-08 03:26:00,69.3,63.5,30.03,SW,225,1.3,2.0,82,0.00,,---,0.00,VWS V14.00,2013-07-08 07:26:00,
2013-07-08 03:31:00,69.3,63.5,30.03,South,180,1.3,1.3,82,0.00,,---,0.00,VWS V14.00,2013-07-08 07:31:00,
2013-07-08 03:36:00,69.3,63.5,30.03,South,180,2.2,2.5,82,0.00,,---,0.00,VWS V14.00,2013-07-08 07:36:00,
2013-07-08 03:41:00,69.3,63.5,30.03,SSW,202,1.3,2.2,82,0.00,,---,0.00,VWS V14.00,2013-07-08 07:41:00,
2013-07-08 03:46:00,69.3,63.5,30.03,SSW,202,1.1,1.6,82,0.00,,---,0.00,VWS V14.00,2013-07-08 07:46:00,
2013-07-08 03:51:00,69.1,63.4,30.03,South,180,1.6,2.2,82,0.00,,---,0.00,VWS V14.00,2013-07-08 07:51:00,
2013-07-08 03:56:00,69.1,63.4,30.03,SSW,202,1.3,2.2,82,0.00,,---,0.00,VWS V14.00,2013-07-08 07:56:00,
2013-07-08 04:01:00,69.1,63.4,30.03,NW,315,3.4,3.4,82,0.00,,---,0.00,VWS V14.00,2013-07-08 08:01:00,
2013-07-08 04:06:00,69.1,63.4,30.03,South,180,1.3,2.0,82,0.00,,---,0.00,VWS V14.00,2013-07-08 08:06:00,
2013-07-08 04:11:00,69.1,63.7,30.03,SSW,202,0.9,0.9,83,0.00,,---,0.00,VWS V14.00,2013-07-08 08:11:00,
2013-07-08 04:16:00,69.1,63.7,30.03,SSW,202,1.3,1.3,83,0.00,,---,0.00,VWS V14.00,2013-07-08 08:16:00,
2013-07-08 04:21:00,69.1,63.7,30.03,SSW,202,2.0,2.5,83,0.00,,---,0.00,VWS V14.00,2013-07-08 08:21:00,
2013-07-08 04:26:00,69.1,63.7,30.03,SSW,202,1.6,2.2,83,0.00,,---,0.00,VWS V14.00,2013-07-08 08:26:00,
2013-07-08 04:31:00,69.1,63.7,30.03,South,180,1.1,2.0,83,0.00,,---,0.00,VWS V14.00,2013-07-08 08:31:00,
2013-07-08 04:36:00,69.1,63.7,30.03,WSW,248,2.2,2.2,83,0.00,,---,0.00,VWS V14.00,2013-07-08 08:36:00,
2013-07-08 04:41:00,69.1,63.7,30.03,SW,225,0.0,0.0,83,0.00,,---,0.00,VWS V14.00,2013-07-08 08:41:00,
2013-07-08 04:46:00,68.9,63.5,30.03,SSW,202,1.6,2.0,83,0.00,,---,0.00,VWS V14.00,2013-07-08 08:46:00,
2013-07-08 04:51:00,68.9,63.5,30.03,SSW,202,1.3,2.5,83,0.00,,---,0.00,VWS V14.00,2013-07-08 08:51:00,
2013-07-08 04:56:00,68.9,63.5,30.03,SSW,202,1.3,1.6,83,0.00,,---,0.00,VWS V14.00,2013-07-08 08:56:00,
2013-07-08 05:01:00,68.9,63.5,30.03,SSW,202,2.0,2.2,83,0.00,,---,0.00,VWS V14.00,2013-07-08 09:01:00,
2013-07-08 05:06:00,68.9,63.5,30.03,South,180,1.3,2.2,83,0.00,,---,0.00,VWS V14.00,2013-07-08 09:06:00,
2013-07-08 05:11:00,68.7,63.7,30.03,SSW,202,0.9,1.6,84,0.00,,---,0.00,VWS V14.00,2013-07-08 09:11:00,
2013-07-08 05:16:00,68.7,63.7,30.03,SW,225,1.3,1.6,84,0.00,,---,0.00,VWS V14.00,2013-07-08 09:16:00,
2013-07-08 05:21:00,68.7,63.7,30.03,SSW,202,2.5,2.7,84,0.00,,---,0.00,VWS V14.00,2013-07-08 09:21:00,
2013-07-08 05:26:00,68.7,63.7,30.03,SSW,202,3.4,3.4,84,0.00,,---,0.00,VWS V14.00,2013-07-08 09:26:00,
2013-07-08 05:31:00,68.7,63.7,30.03,SSW,202,0.9,2.0,84,0.00,,---,0.00,VWS V14.00,2013-07-08 09:31:00,
2013-07-08 05:36:00,68.7,63.7,30.03,SSW,202,1.6,1.6,84,0.00,,---,0.00,VWS V14.00,2013-07-08 09:36:00,
2013-07-08 05:41:00,68.5,63.5,30.03,SSW,202,1.6,2.0,84,0.00,,---,0.00,VWS V14.00,2013-07-08 09:41:00,
2013-07-08 05:46:00,68.5,63.5,30.03,SW,225,2.0,2.2,84,0.00,,---,0.00,VWS V14.00,2013-07-08 09:46:00,
2013-07-08 05:51:00,68.5,63.5,30.03,SSW,202,1.1,1.3,84,0.00,,---,0.00,VWS V14.00,2013-07-08 09:51:00,
2013-07-08 05:56:00,68.5,63.5,30.03,SW,225,2.2,2.2,84,0.00,,---,0.00,VWS V14.00,2013-07-08 09:56:00,
2013-07-08 06:01:00,68.5,63.5,30.03,SSW,202,2.5,2.5,84,0.00,,---,0.00,VWS V14.00,2013-07-08 10:01:00,
2013-07-08 06:06:00,68.5,63.9,30.06,SSW,202,3.1,3.1,85,0.00,,---,0.00,VWS V14.00,2013-07-08 10:06:00,
2013-07-08 06:11:00,68.5,63.9,30.06,SSW,202,1.6,2.0,85,0.00,,---,0.00,VWS V14.00,2013-07-08 10:11:00,
2013-07-08 06:16:00,68.7,64.0,30.06,SSW,202,1.6,2.0,85,0.00,,---,0.00,VWS V14.00,2013-07-08 10:16:00,
2013-07-08 06:21:00,68.7,64.0,30.06,SSW,202,1.6,1.6,85,0.00,,---,0.00,VWS V14.00,2013-07-08 10:21:00,
2013-07-08 06:26:00,68.9,64.2,30.06,SSW,202,0.9,2.0,85,0.00,,---,0.00,VWS V14.00,2013-07-08 10:26:00,
2013-07-08 06:31:00,68.9,64.6,30.06,SSW,202,2.0,2.2,86,0.00,,---,0.00,VWS V14.00,2013-07-08 10:31:00,
2013-07-08 06:36:00,69.1,64.7,30.06,SSW,202,2.7,2.7,86,0.00,,---,0.00,VWS V14.00,2013-07-08 10:36:00,
2013-07-08 06:41:00,69.1,64.7,30.06,SSW,202,2.5,2.5,86,0.00,,---,0.00,VWS V14.00,2013-07-08 10:41:00,
2013-07-08 06:46:00,69.3,64.9,30.06,WSW,248,1.3,2.7,86,0.00,,---,0.00,VWS V14.00,2013-07-08 10:46:00,
2013-07-08 06:51:00,69.3,64.9,30.06,West,270,1.6,2.5,86,0.00,,---,0.00,VWS V14.00,2013-07-08 10:51:00,
2013-07-08 06:56:00,69.3,64.9,30.06,WSW,248,2.9,2.9,86,0.00,,---,0.00,VWS V14.00,2013-07-08 10:56:00,
2013-07-08 07:01:00,69.4,65.1,30.06,SSW,202,2.0,2.0,86,0.00,,---,0.00,VWS V14.00,2013-07-08 11:01:00,
2013-07-08 07:06:00,69.6,65.6,30.06,SW,225,1.1,2.2,87,0.00,,---,0.00,VWS V14.00,2013-07-08 11:06:00,
2013-07-08 07:11:00,69.8,65.8,30.06,SSW,202,2.5,3.6,87,0.00,,---,0.00,VWS V14.00,2013-07-08 11:11:00,
2013-07-08 07:16:00,70.0,65.9,30.06,South,180,1.3,3.6,87,0.00,,---,0.00,VWS V14.00,2013-07-08 11:16:00,
2013-07-08 07:21:00,70.2,66.1,30.06,SSW,202,2.7,3.1,87,0.00,,---,0.00,VWS V14.00,2013-07-08 11:21:00,
2013-07-08 07:26:00,70.3,66.3,30.06,SSW,202,2.5,2.5,87,0.00,,---,0.00,VWS V14.00,2013-07-08 11:26:00,
2013-07-08 07:31:00,70.7,66.7,30.06,SSE,158,1.6,3.6,87,0.00,,---,0.00,VWS V14.00,2013-07-08 11:31:00,
2013-07-08 07:36:00,70.9,66.8,30.06,SSW,202,3.4,4.0,87,0.00,,---,0.00,VWS V14.00,2013-07-08 11:36:00,
2013-07-08 07:41:00,71.2,67.2,30.06,SSW,202,3.4,3.4,87,0.00,,---,0.00,VWS V14.00,2013-07-08 11:41:00,
2013-07-08 07:46:00,71.4,67.3,30.06,South,180,3.1,3.1,87,0.00,,---,0.00,VWS V14.00,2013-07-08 11:46:00,
2013-07-08 07:51:00,71.8,67.7,30.06,WNW,292,0.0,2.5,87,0.00,,---,0.00,VWS V14.00,2013-07-08 11:51:00,
2013-07-08 07:56:00,72.1,68.1,30.06,South,180,2.7,2.7,87,0.00,,---,0.00,VWS V14.00,2013-07-08 11:56:00,
2013-07-08 08:01:00,72.3,67.9,30.06,SSW,202,1.6,1.6,86,0.00,,---,0.00,VWS V14.00,2013-07-08 12:01:00,
2013-07-08 08:06:00,72.3,67.9,30.06,SE,135,1.3,2.0,86,0.00,,---,0.00,VWS V14.00,2013-07-08 12:06:00,
2013-07-08 08:11:00,72.3,67.6,30.06,South,180,0.9,1.1,85,0.00,,---,0.00,VWS V14.00,2013-07-08 12:11:00,
2013-07-08 08:16:00,72.7,67.9,30.06,SSW,202,1.6,2.2,85,0.00,,---,0.00,VWS V14.00,2013-07-08 12:16:00,
2013-07-08 08:21:00,73.4,69.0,30.06,SSW,202,2.2,2.2,86,0.00,,---,0.00,VWS V14.00,2013-07-08 12:21:00,
2013-07-08 08:26:00,73.4,69.0,30.06,ENE,68,0.0,1.6,86,0.00,,---,0.00,VWS V14.00,2013-07-08 12:26:00,
2013-07-08 08:31:00,73.4,68.6,30.06,SSE,158,1.3,1.3,85,0.00,,---,0.00,VWS V14.00,2013-07-08 12:31:00,
2013-07-08 08:36:00,73.4,68.6,30.06,SSW,202,0.0,0.0,85,0.00,,---,0.00,VWS V14.00,2013-07-08 12:36:00,
2013-07-08 08:41:00,73.9,69.2,30.06,SE,135,1.1,2.2,85,0.00,,---,0.00,VWS V14.00,2013-07-08 12:41:00,
2013-07-08 08:46:00,74.1,69.0,30.06,SSE,158,4.3,4.3,84,0.00,,---,0.00,VWS V14.00,2013-07-08 12:46:00,
2013-07-08 08:51:00,74.5,69.3,30.06,NW,315,2.5,4.0,84,0.00,,---,0.00,VWS V14.00,2013-07-08 12:51:00,
2013-07-08 08:56:00,74.5,69.0,30.06,SSW,202,1.6,2.0,83,0.00,,---,0.00,VWS V14.00,2013-07-08 12:56:00,
2013-07-08 09:01:00,74.8,69.0,30.06,ESE,112,1.6,2.0,82,0.00,,---,0.00,VWS V14.00,2013-07-08 13:01:00,
2013-07-08 09:06:00,75.2,69.3,30.09,SSE,158,3.4,3.4,82,0.00,,---,0.00,VWS V14.00,2013-07-08 13:06:00,
2013-07-08 09:11:00,75.4,69.5,30.09,SSW,202,1.1,1.6,82,0.00,,---,0.00,VWS V14.00,2013-07-08 13:11:00,
2013-07-08 09:16:00,75.9,69.7,30.09,South,180,2.5,2.5,81,0.00,,---,0.00,VWS V14.00,2013-07-08 13:16:00,
2013-07-08 09:21:00,76.3,69.7,30.06,South,180,3.8,3.8,80,0.00,,---,0.00,VWS V14.00,2013-07-08 13:21:00,
2013-07-08 09:26:00,76.5,69.5,30.06,SE,135,2.5,4.7,79,0.00,,---,0.00,VWS V14.00,2013-07-08 13:26:00,
2013-07-08 09:31:00,76.8,69.4,30.06,South,180,3.8,3.8,78,0.00,,---,0.00,VWS V14.00,2013-07-08 13:31:00,
2013-07-08 09:36:00,76.8,69.1,30.06,SW,225,2.5,6.0,77,0.00,,---,0.00,VWS V14.00,2013-07-08 13:36:00,
2013-07-08 09:41:00,76.8,68.3,30.06,East,90,1.1,2.5,75,0.00,,---,0.00,VWS V14.00,2013-07-08 13:41:00,
2013-07-08 09:46:00,77.2,68.3,30.06,East,90,2.7,2.7,74,0.00,,---,0.00,VWS V14.00,2013-07-08 13:46:00,
2013-07-08 09:51:00,77.4,67.6,30.06,SSE,158,2.5,2.5,72,0.00,,---,0.00,VWS V14.00,2013-07-08 13:51:00,
2013-07-08 09:56:00,77.5,67.0,30.06,ESE,112,1.6,2.9,70,0.00,,---,0.00,VWS V14.00,2013-07-08 13:56:00,
2013-07-08 10:01:00,77.9,66.9,30.06,NNW,338,2.7,2.7,69,0.00,,---,0.00,VWS V14.00,2013-07-08 14:01:00,
2013-07-08 10:06:00,78.1,66.7,30.06,WSW,248,1.1,2.9,68,0.00,,---,0.00,VWS V14.00,2013-07-08 14:06:00,
2013-07-08 10:11:00,78.3,66.0,30.06,SSE,158,1.6,1.6,66,0.00,,---,0.00,VWS V14.00,2013-07-08 14:11:00,
2013-07-08 10:16:00,78.4,65.7,30.06,South,180,2.2,2.2,65,0.00,,---,0.00,VWS V14.00,2013-07-08 14:16:00,
2013-07-08 10:21:00,78.8,66.1,30.06,North,0,1.1,2.7,65,0.00,,---,0.00,VWS V14.00,2013-07-08 14:21:00,
2013-07-08 10:26:00,79.2,66.4,30.06,SSE,158,1.6,1.6,65,0.00,,---,0.00,VWS V14.00,2013-07-08 14:26:00,
2013-07-08 10:31:00,79.3,64.7,30.06,South,180,0.9,3.6,61,0.00,,---,0.00,VWS V14.00,2013-07-08 14:31:00,
2013-07-08 10:36:00,79.7,65.1,30.06,South,180,4.0,4.0,61,0.00,,---,0.00,VWS V14.00,2013-07-08 14:36:00,
2013-07-08 10:41:00,79.9,64.8,30.06,SSW,202,3.4,3.4,60,0.00,,---,0.00,VWS V14.00,2013-07-08 14:41:00,
2013-07-08 10:46:00,80.1,64.0,30.06,SSE,158,3.1,3.1,58,0.00,,---,0.00,VWS V14.00,2013-07-08 14:46:00,
2013-07-08 10:51:00,80.1,63.0,30.06,SSW,202,1.1,1.1,56,0.00,,---,0.00,VWS V14.00,2013-07-08 14:51:00,
2013-07-08 10:56:00,80.4,63.3,30.06,South,180,3.6,3.6,56,0.00,,---,0.00,VWS V14.00,2013-07-08 14:56:00,
2013-07-08 11:01:00,80.8,63.6,30.06,WSW,248,2.9,2.9,56,0.00,,---,0.00,VWS V14.00,2013-07-08 15:01:00,
2013-07-08 11:06:00,81.0,62.2,30.06,ENE,68,1.1,2.5,53,0.00,,---,0.00,VWS V14.00,2013-07-08 15:06:00,
2013-07-08 11:11:00,81.0,61.7,30.06,SW,225,2.0,2.7,52,0.00,,---,0.00,VWS V14.00,2013-07-08 15:11:00,
2013-07-08 11:16:00,81.3,62.6,30.06,South,180,2.5,2.5,53,0.00,,---,0.00,VWS V14.00,2013-07-08 15:16:00,
2013-07-08 11:21:00,81.9,63.1,30.06,NNW,338,3.4,3.4,53,0.00,,---,0.00,VWS V14.00,2013-07-08 15:21:00,
2013-07-08 11:26:00,82.0,61.6,30.06,NNW,338,3.6,3.6,50,0.00,,---,0.00,VWS V14.00,2013-07-08 15:26:00,
2013-07-08 11:31:00,82.2,61.2,30.06,SSW,202,3.8,3.8,49,0.00,,---,0.00,VWS V14.00,2013-07-08 15:31:00,
2013-07-08 11:36:00,82.4,59.6,30.06,SSE,158,2.5,2.9,46,0.00,,---,0.00,VWS V14.00,2013-07-08 15:36:00,
2013-07-08 11:41:00,82.6,60.3,30.06,NNE,22,3.6,3.6,47,0.00,,---,0.00,VWS V14.00,2013-07-08 15:41:00,
2013-07-08 11:46:00,82.8,59.9,30.06,SSW,202,4.0,4.0,46,0.00,,---,0.00,VWS V14.00,2013-07-08 15:46:00,
2013-07-08 11:51:00,83.1,59.6,30.06,SSW,202,5.6,5.6,45,0.00,,---,0.00,VWS V14.00,2013-07-08 15:51:00,
2013-07-08 11:56:00,83.3,59.8,30.06,SSW,202,2.7,4.0,45,0.00,,---,0.00,VWS V14.00,2013-07-08 15:56:00,
2013-07-08 12:01:00,83.3,59.1,30.06,SE,135,4.9,4.9,44,0.00,,---,0.00,VWS V14.00,2013-07-08 16:01:00,
2013-07-08 12:06:00,83.5,58.7,30.06,SSE,158,2.2,3.1,43,0.00,,---,0.00,VWS V14.00,2013-07-08 16:06:00,
2013-07-08 12:11:00,83.8,59.6,30.06,WSW,248,3.6,3.6,44,0.00,,---,0.00,VWS V14.00,2013-07-08 16:11:00,
2013-07-08 12:16:00,84.4,59.5,30.06,SSW,202,4.7,6.3,43,0.00,,---,0.00,VWS V14.00,2013-07-08 16:16:00,
2013-07-08 12:21:00,84.4,59.5,30.06,SSW,202,3.4,3.4,43,0.00,,---,0.00,VWS V14.00,2013-07-08 16:21:00,
2013-07-08 12:26:00,84.9,59.3,30.06,South,180,6.0,6.0,42,0.00,,---,0.00,VWS V14.00,2013-07-08 16:26:00,
2013-07-08 12:31:00,85.1,58.8,30.06,South,180,2.7,2.9,41,0.00,,---,0.00,VWS V14.00,2013-07-08 16:31:00,
2013-07-08 12:36:00,85.3,58.9,30.06,SW,225,3.1,3.8,41,0.00,,---,0.00,VWS V14.00,2013-07-08 16:36:00,
2013-07-08 12:41:00,85.5,58.4,30.06,South,180,4.3,4.3,40,0.00,,---,0.00,VWS V14.00,2013-07-08 16:41:00,
2013-07-08 12:46:00,85.6,58.6,30.06,SSW,202,2.9,2.9,40,0.00,,---,0.00,VWS V14.00,2013-07-08 16:46:00,
2013-07-08 12:51:00,85.8,59.4,30.06,SSW,202,3.8,4.0,41,0.00,,---,0.00,VWS V14.00,2013-07-08 16:51:00,
2013-07-08 12:56:00,86.0,58.9,30.06,West,270,2.5,2.5,40,0.00,,---,0.00,VWS V14.00,2013-07-08 16:56:00,
2013-07-08 13:01:00,86.2,59.0,30.06,SSW,202,2.7,3.4,40,0.00,,---,0.00,VWS V14.00,2013-07-08 17:01:00,
2013-07-08 13:06:00,86.4,59.2,30.06,ENE,68,1.6,3.6,40,0.00,,---,0.00,VWS V14.00,2013-07-08 17:06:00,
2013-07-08 13:11:00,86.2,58.3,30.06,South,180,4.3,6.5,39,0.00,,---,0.00,VWS V14.00,2013-07-08 17:11:00,
2013-07-08 13:16:00,86.2,57.6,30.06,NNW,338,3.8,6.3,38,0.00,,---,0.00,VWS V14.00,2013-07-08 17:16:00,
2013-07-08 13:21:00,86.0,58.2,30.06,South,180,3.1,4.0,39,0.00,,---,0.00,VWS V14.00,2013-07-08 17:21:00,
2013-07-08 13:26:00,86.0,58.9,30.06,SSE,158,3.4,4.0,40,0.00,,---,0.00,VWS V14.00,2013-07-08 17:26:00,
2013-07-08 13:31:00,85.8,58.0,30.06,East,90,6.0,6.0,39,0.00,,---,0.00,VWS V14.00,2013-07-08 17:31:00,
2013-07-08 13:37:00,85.8,58.0,30.06,South,180,2.5,2.5,39,0.00,,---,0.00,VWS V14.00,2013-07-08 17:37:00,
2013-07-08 13:42:00,86.0,58.2,30.06,South,180,3.8,3.8,39,0.00,,---,0.00,VWS V14.00,2013-07-08 17:42:00,
2013-07-08 13:47:00,86.5,58.7,30.06,West,270,3.4,5.4,39,0.00,,---,0.00,VWS V14.00,2013-07-08 17:47:00,
2013-07-08 13:52:00,86.5,58.7,30.06,SSE,158,3.6,4.0,39,0.00,,---,0.00,VWS V14.00,2013-07-08 17:52:00,
2013-07-08 13:57:00,86.7,58.8,30.06,North,0,2.0,3.4,39,0.00,,---,0.00,VWS V14.00,2013-07-08 17:57:00,
2013-07-08 14:02:00,86.2,57.6,30.06,SSE,158,2.7,2.7,38,0.00,,---,0.00,VWS V14.00,2013-07-08 18:02:00,
2013-07-08 14:07:00,85.6,57.9,30.03,SSW,202,2.0,3.4,39,0.00,,---,0.00,VWS V14.00,2013-07-08 18:07:00,
2013-07-08 14:12:00,85.6,57.9,30.03,South,180,2.5,3.4,39,0.00,,---,0.00,VWS V14.00,2013-07-08 18:12:00,
2013-07-08 14:17:00,85.8,58.0,30.03,SSW,202,4.3,4.3,39,0.00,,---,0.00,VWS V14.00,2013-07-08 18:17:00,
2013-07-08 14:23:00,85.6,57.9,30.03,SE,135,2.2,3.8,39,0.00,,---,0.00,VWS V14.00,2013-07-08 18:23:00,
2013-07-08 14:28:00,85.3,57.5,30.03,West,270,2.2,2.9,39,0.00,,---,0.00,VWS V14.00,2013-07-08 18:28:00,
2013-07-08 14:33:00,84.9,57.2,30.03,SSE,158,5.6,5.6,39,0.00,,---,0.00,VWS V14.00,2013-07-08 18:33:00,
2013-07-08 14:38:00,85.1,57.4,30.03,SSW,202,2.7,2.7,39,0.00,,---,0.00,VWS V14.00,2013-07-08 18:38:00,
2013-07-08 14:43:00,85.6,57.9,30.03,SSW,202,2.9,3.1,39,0.00,,---,0.00,VWS V14.00,2013-07-08 18:43:00,
2013-07-08 14:48:00,85.8,57.3,30.03,South,180,2.5,2.5,38,0.00,,---,0.00,VWS V14.00,2013-07-08 18:48:00,
2013-07-08 14:53:00,86.0,56.7,30.03,SSW,202,1.3,1.6,37,0.00,,---,0.00,VWS V14.00,2013-07-08 18:53:00,
2013-07-08 14:58:00,85.5,57.0,30.03,South,180,4.0,4.0,38,0.00,,---,0.00,VWS V14.00,2013-07-08 18:58:00,
2013-07-08 15:03:00,85.5,57.7,30.03,ENE,68,1.6,1.6,39,0.00,,---,0.00,VWS V14.00,2013-07-08 19:03:00,
2013-07-08 15:08:00,85.8,57.3,30.03,ESE,112,1.1,1.1,38,0.00,,---,0.00,VWS V14.00,2013-07-08 19:08:00,
2013-07-08 15:14:00,86.0,58.2,30.03,SW,225,4.3,4.3,39,0.00,,---,0.00,VWS V14.00,2013-07-08 19:14:00,
2013-07-08 15:19:00,86.0,57.5,30.03,NNE,22,3.4,3.4,38,0.00,,---,0.00,VWS V14.00,2013-07-08 19:19:00,
2013-07-08 15:24:00,86.0,57.5,30.03,SSW,202,1.6,3.8,38,0.00,,---,0.00,VWS V14.00,2013-07-08 19:24:00,
2013-07-08 15:29:00,85.6,57.9,30.03,South,180,3.6,3.6,39,0.00,,---,0.00,VWS V14.00,2013-07-08 19:29:00,
2013-07-08 15:34:00,85.3,57.5,30.03,South,180,2.5,2.7,39,0.00,,---,0.00,VWS V14.00,2013-07-08 19:34:00,
2013-07-08 15:39:00,85.5,57.7,30.03,SSE,158,2.0,2.0,39,0.00,,---,0.00,VWS V14.00,2013-07-08 19:39:00,
2013-07-08 15:44:00,85.5,57.7,30.03,SSW,202,5.8,5.8,39,0.00,,---,0.00,VWS V14.00,2013-07-08 19:44:00,
2013-07-08 15:49:00,85.1,57.4,30.00,SW,225,1.1,3.1,39,0.00,,---,0.00,VWS V14.00,2013-07-08 19:49:00,
2013-07-08 15:54:00,84.4,56.7,30.00,East,90,2.5,3.4,39,0.00,,---,0.00,VWS V14.00,2013-07-08 19:54:00,
2013-07-08 15:59:00,84.2,56.6,30.00,NW,315,2.5,2.5,39,0.00,,---,0.00,VWS V14.00,2013-07-08 19:59:00,
2013-07-08 16:04:00,84.4,57.5,30.03,SSW,202,4.0,4.0,40,0.00,,---,0.00,VWS V14.00,2013-07-08 20:04:00,
2013-07-08 16:09:00,84.7,57.8,30.03,South,180,2.7,2.7,40,0.00,,---,0.00,VWS V14.00,2013-07-08 20:09:00,
2013-07-08 16:14:00,85.1,58.1,30.03,South,180,3.6,3.6,40,0.00,,---,0.00,VWS V14.00,2013-07-08 20:14:00,
2013-07-08 16:19:00,85.3,58.2,30.00,NW,315,2.9,3.1,40,0.00,,---,0.00,VWS V14.00,2013-07-08 20:19:00,
2013-07-08 16:24:00,85.3,58.2,30.00,NNW,338,3.4,3.4,40,0.00,,---,0.00,VWS V14.00,2013-07-08 20:24:00,
2013-07-08 16:31:00,85.5,58.4,30.00,SSW,202,2.0,3.6,40,0.00,,---,0.00,VWS V14.00,2013-07-08 20:31:00,
2013-07-08 16:36:00,85.8,58.7,30.03,SSW,202,2.7,2.7,40,0.00,,---,0.00,VWS V14.00,2013-07-08 20:36:00,
2013-07-08 16:41:00,85.8,58.0,30.03,SSE,158,1.3,1.3,39,0.00,,---,0.00,VWS V14.00,2013-07-08 20:41:00,
2013-07-08 16:46:00,85.6,57.9,30.03,ENE,68,1.6,2.2,39,0.00,,---,0.00,VWS V14.00,2013-07-08 20:46:00,
2013-07-08 16:51:00,85.5,57.7,30.03,SSE,158,3.1,3.1,39,0.00,,---,0.00,VWS V14.00,2013-07-08 20:51:00,
2013-07-08 16:57:00,85.5,57.7,30.03,SSW,202,3.1,3.1,39,0.00,,---,0.00,VWS V14.00,2013-07-08 20:57:00,
2013-07-08 17:02:00,85.5,57.7,30.03,SSW,202,3.1,3.1,39,0.00,,---,0.00,VWS V14.00,2013-07-08 21:02:00,
2013-07-08 17:07:00,85.3,57.5,30.03,South,180,1.6,2.9,39,0.00,,---,0.00,VWS V14.00,2013-07-08 21:07:00,
2013-07-08 17:12:00,85.5,57.7,30.03,South,180,2.5,2.9,39,0.00,,---,0.00,VWS V14.00,2013-07-08 21:12:00,
2013-07-08 17:17:00,85.3,57.5,30.03,South,180,3.1,4.9,39,0.00,,---,0.00,VWS V14.00,2013-07-08 21:17:00,
2013-07-08 17:22:00,85.3,57.5,30.03,South,180,3.4,4.9,39,0.00,,---,0.00,VWS V14.00,2013-07-08 21:22:00,
2013-07-08 17:27:00,85.5,57.0,30.03,SSW,202,5.6,5.6,38,0.00,,---,0.00,VWS V14.00,2013-07-08 21:27:00,
2013-07-08 17:33:00,85.5,57.0,30.03,SSE,158,4.0,4.3,38,0.00,,---,0.00,VWS V14.00,2013-07-08 21:33:00,
2013-07-08 17:38:00,85.3,56.8,30.00,SSW,202,1.3,2.9,38,0.00,,---,0.00,VWS V14.00,2013-07-08 21:38:00,
2013-07-08 17:43:00,85.3,56.1,30.00,NNE,22,3.1,3.1,37,0.00,,---,0.00,VWS V14.00,2013-07-08 21:43:00,
2013-07-08 17:48:00,85.3,56.8,30.00,West,270,2.0,3.4,38,0.00,,---,0.00,VWS V14.00,2013-07-08 21:48:00,
2013-07-08 17:53:00,85.3,56.8,30.00,South,180,2.0,2.7,38,0.00,,---,0.00,VWS V14.00,2013-07-08 21:53:00,
2013-07-08 17:58:00,85.1,56.7,30.00,West,270,2.5,3.8,38,0.00,,---,0.00,VWS V14.00,2013-07-08 21:58:00,
2013-07-08 18:03:00,85.1,56.7,30.00,SSE,158,2.2,4.9,38,0.00,,---,0.00,VWS V14.00,2013-07-08 22:03:00,
2013-07-08 18:09:00,84.9,56.5,30.00,SW,225,2.5,2.5,38,0.00,,---,0.00,VWS V14.00,2013-07-08 22:09:00,
2013-07-08 18:14:00,84.9,56.5,30.00,South,180,2.0,4.9,38,0.00,,---,0.00,VWS V14.00,2013-07-08 22:14:00,
2013-07-08 18:19:00,84.7,56.3,29.97,SW,225,2.2,2.2,38,0.00,,---,0.00,VWS V14.00,2013-07-08 22:19:00,
2013-07-08 18:24:00,84.6,56.2,29.97,SSE,158,2.5,2.5,38,0.00,,---,0.00,VWS V14.00,2013-07-08 22:24:00,
2013-07-08 18:30:00,84.6,56.2,29.97,SE,135,4.3,4.3,38,0.00,,---,0.00,VWS V14.00,2013-07-08 22:30:00,
2013-07-08 18:35:00,84.6,56.2,29.97,ESE,112,3.1,4.3,38,0.00,,---,0.00,VWS V14.00,2013-07-08 22:35:00,
2013-07-08 18:40:00,84.4,56.0,29.97,SSW,202,2.9,2.9,38,0.00,,---,0.00,VWS V14.00,2013-07-08 22:40:00,
2013-07-08 18:45:00,84.4,56.0,29.97,South,180,2.9,4.9,38,0.00,,---,0.00,VWS V14.00,2013-07-08 22:45:00,
2013-07-08 18:50:00,84.2,56.6,30.00,SSW,202,2.7,2.7,39,0.00,,---,0.00,VWS V14.00,2013-07-08 22:50:00,
2013-07-08 18:55:00,84.0,56.4,30.00,SSW,202,3.1,3.1,39,0.00,,---,0.00,VWS V14.00,2013-07-08 22:55:00,
2013-07-08 19:01:00,83.8,56.3,30.00,SSW,202,3.4,4.9,39,0.00,,---,0.00,VWS V14.00,2013-07-08 23:01:00,
2013-07-08 19:06:00,83.5,56.6,30.00,WSW,248,3.6,3.6,40,0.00,,---,0.00,VWS V14.00,2013-07-08 23:06:00,
2013-07-08 19:11:00,83.3,55.8,30.00,SW,225,1.1,2.5,39,0.00,,---,0.00,VWS V14.00,2013-07-08 23:11:00,
2013-07-08 19:16:00,83.1,56.3,30.00,South,180,1.3,2.7,40,0.00,,---,0.00,VWS V14.00,2013-07-08 23:16:00,
2013-07-08 19:21:00,82.9,56.2,30.03,SSW,202,1.6,2.9,40,0.00,,---,0.00,VWS V14.00,2013-07-08 23:21:00,
2013-07-08 19:26:00,82.8,55.3,30.03,South,180,4.0,4.0,39,0.00,,---,0.00,VWS V14.00,2013-07-08 23:26:00,
2013-07-08 19:31:00,82.6,55.8,30.03,South,180,2.2,4.0,40,0.00,,---,0.00,VWS V14.00,2013-07-08 23:31:00,
2013-07-08 19:36:00,82.4,55.7,30.00,South,180,2.9,4.9,40,0.00,,---,0.00,VWS V14.00,2013-07-08 23:36:00,
2013-07-08 19:41:00,82.2,55.5,30.00,SSW,202,2.5,3.8,40,0.00,,---,0.00,VWS V14.00,2013-07-08 23:41:00,
2013-07-08 19:46:00,82.2,55.5,30.00,SSW,202,3.6,3.6,40,0.00,,---,0.00,VWS V14.00,2013-07-08 23:46:00,
2013-07-08 19:52:00,82.0,56.0,30.03,SSE,158,2.2,2.9,41,0.00,,---,0.00,VWS V14.00,2013-07-08 23:52:00,
2013-07-08 19:57:00,81.9,55.9,30.03,SSW,202,1.6,4.0,41,0.00,,---,0.00,VWS V14.00,2013-07-08 23:57:00,
2013-07-08 20:02:00,81.9,55.9,30.03,SSE,158,3.1,4.3,41,0.00,,---,0.00,VWS V14.00,2013-07-09 00:02:00,
2013-07-08 20:07:00,81.7,55.0,30.03,South,180,2.5,2.7,40,0.00,,---,0.00,VWS V14.00,2013-07-09 00:07:00,
2013-07-08 20:12:00,81.3,54.7,30.03,West,270,2.7,3.1,40,0.00,,---,0.00,VWS V14.00,2013-07-09 00:12:00,
2013-07-08 20:17:00,81.3,54.7,30.03,South,180,3.8,3.8,40,0.00,,---,0.00,VWS V14.00,2013-07-09 00:17:00,
2013-07-08 20:22:00,81.1,54.5,30.03,SSW,202,2.5,2.5,40,0.00,,---,0.00,VWS V14.00,2013-07-09 00:22:00,
2013-07-08 20:28:00,80.8,54.2,30.03,South,180,1.3,2.0,40,0.00,,---,0.00,VWS V14.00,2013-07-09 00:28:00,
2013-07-08 20:33:00,80.8,54.2,30.03,SW,225,2.9,3.1,40,0.00,,---,0.00,VWS V14.00,2013-07-09 00:33:00,
2013-07-08 20:39:00,80.4,54.6,30.03,SSW,202,1.6,1.6,41,0.00,,---,0.00,VWS V14.00,2013-07-09 00:39:00,
2013-07-08 20:44:00,80.2,54.4,30.03,SSW,202,1.1,1.1,41,0.00,,---,0.00,VWS V14.00,2013-07-09 00:44:00,
2013-07-08 20:49:00,80.1,54.3,30.03,SSW,202,2.7,2.7,41,0.00,,---,0.00,VWS V14.00,2013-07-09 00:49:00,
2013-07-08 20:54:00,79.9,54.1,30.03,South,180,3.1,3.1,41,0.00,,---,0.00,VWS V14.00,2013-07-09 00:54:00,
2013-07-08 21:00:00,79.9,54.8,30.03,SSW,202,2.7,3.6,42,0.00,,---,0.00,VWS V14.00,2013-07-09 01:00:00,
2013-07-08 21:05:00,79.7,54.6,30.03,SW,225,2.0,2.9,42,0.00,,---,0.00,VWS V14.00,2013-07-09 01:05:00,
2013-07-08 21:10:00,79.5,54.4,30.03,SSW,202,3.6,3.6,42,0.00,,---,0.00,VWS V14.00,2013-07-09 01:10:00,
2013-07-08 21:15:00,79.5,54.4,30.03,South,180,1.6,2.2,42,0.00,,---,0.00,VWS V14.00,2013-07-09 01:15:00,
2013-07-08 21:20:00,79.2,54.8,30.06,WSW,248,2.9,2.9,43,0.00,,---,0.00,VWS V14.00,2013-07-09 01:20:00,
2013-07-08 21:25:00,79.0,54.6,30.06,WSW,248,1.6,2.5,43,0.00,,---,0.00,VWS V14.00,2013-07-09 01:25:00,
2013-07-08 21:30:00,79.0,54.6,30.06,South,180,1.1,2.7,43,0.00,,---,0.00,VWS V14.00,2013-07-09 01:30:00,
2013-07-08 21:35:00,78.8,54.4,30.06,SSW,202,3.1,3.4,43,0.00,,---,0.00,VWS V14.00,2013-07-09 01:35:00,
2013-07-08 21:40:00,78.6,54.9,30.06,WSW,248,2.0,2.0,44,0.00,,---,0.00,VWS V14.00,2013-07-09 01:40:00,
2013-07-08 21:45:00,78.4,54.7,30.06,SSW,202,0.9,0.9,44,0.00,,---,0.00,VWS V14.00,2013-07-09 01:45:00,
2013-07-08 21:50:00,78.3,55.2,30.06,WSW,248,1.6,2.0,45,0.00,,---,0.00,VWS V14.00,2013-07-09 01:50:00,
2013-07-08 21:56:00,78.3,55.2,30.06,SSW,202,1.3,1.6,45,0.00,,---,0.00,VWS V14.00,2013-07-09 01:56:00,
2013-07-08 22:01:00,78.1,55.0,30.06,WSW,248,0.9,1.1,45,0.00,,---,0.00,VWS V14.00,2013-07-09 02:01:00,
2013-07-08 22:06:00,78.1,55.0,30.06,SW,225,1.3,1.3,45,0.00,,---,0.00,VWS V14.00,2013-07-09 02:06:00,
2013-07-08 22:12:00,77.9,55.5,30.06,SSW,202,0.9,1.3,46,0.00,,---,0.00,VWS V14.00,2013-07-09 02:12:00,
2013-07-08 22:17:00,77.7,55.3,30.06,SSW,202,1.1,2.5,46,0.00,,---,0.00,VWS V14.00,2013-07-09 02:17:00,
2013-07-08 22:22:00,77.7,55.9,30.09,SW,225,2.0,2.5,47,0.00,,---,0.00,VWS V14.00,2013-07-09 02:22:00,
2013-07-08 22:27:00,77.5,55.7,30.09,WSW,248,1.3,1.3,47,0.00,,---,0.00,VWS V14.00,2013-07-09 02:27:00,
2013-07-08 22:32:00,77.5,55.7,30.09,South,180,0.0,2.7,47,0.00,,---,0.00,VWS V14.00,2013-07-09 02:32:00,
2013-07-08 22:37:00,77.4,55.6,30.06,SSW,202,1.3,1.6,47,0.00,,---,0.00,VWS V14.00,2013-07-09 02:37:00,
2013-07-08 22:42:00,77.4,55.6,30.06,SW,225,0.9,0.9,47,0.00,,---,0.00,VWS V14.00,2013-07-09 02:42:00,
2013-07-08 22:47:00,77.2,56.0,30.06,SW,225,0.0,0.0,48,0.00,,---,0.00,VWS V14.00,2013-07-09 02:47:00,
2013-07-08 22:52:00,77.2,56.0,30.06,ESE,112,2.0,2.0,48,0.00,,---,0.00,VWS V14.00,2013-07-09 02:52:00,
2013-07-08 22:57:00,77.0,55.8,30.06,SSW,202,1.3,2.0,48,0.00,,---,0.00,VWS V14.00,2013-07-09 02:57:00,
2013-07-08 23:03:00,76.8,56.2,30.06,South,180,1.3,1.6,49,0.00,,---,0.00,VWS V14.00,2013-07-09 03:03:00,
2013-07-08 23:08:00,76.8,56.2,30.06,WNW,292,0.0,0.0,49,0.00,,---,0.00,VWS V14.00,2013-07-09 03:08:00,
2013-07-08 23:13:00,76.6,56.1,30.06,NNW,338,0.0,0.0,49,0.00,,---,0.00,VWS V14.00,2013-07-09 03:13:00,
2013-07-08 23:18:00,76.6,56.1,30.06,NNW,338,0.0,1.1,49,0.00,,---,0.00,VWS V14.00,2013-07-09 03:18:00,
2013-07-08 23:23:00,76.5,56.5,30.09,NNW,338,0.0,0.0,50,0.00,,---,0.00,VWS V14.00,2013-07-09 03:23:00,
2013-07-08 23:28:00,76.5,56.5,30.09,WSW,248,1.3,1.3,50,0.00,,---,0.00,VWS V14.00,2013-07-09 03:28:00,
2013-07-08 23:33:00,76.3,56.3,30.09,WSW,248,0.0,0.0,50,0.00,,---,0.00,VWS V14.00,2013-07-09 03:33:00,
2013-07-08 23:38:00,76.1,56.7,30.06,SSW,202,1.6,2.9,51,0.00,,---,0.00,VWS V14.00,2013-07-09 03:38:00,
2013-07-08 23:43:00,76.1,56.7,30.06,SW,225,0.0,0.0,51,0.00,,---,0.00,VWS V14.00,2013-07-09 03:43:00,
2013-07-08 23:48:00,75.9,56.5,30.06,SW,225,0.0,0.0,51,0.00,,---,0.00,VWS V14.00,2013-07-09 03:48:00,
2013-07-08 23:54:00,75.7,56.3,30.09,SW,225,2.0,2.5,51,0.00,,---,0.00,VWS V14.00,2013-07-09 03:54:00,
2013-07-08 23:59:00,75.7,56.9,30.09,WSW,248,0.0,1.1,52,0.00,,---,0.00,VWS V14.00,2013-07-09 03:59:00,